Time;durP1;ratioP1;P1;durP2;ratioP2;P2;SDS_P1;SDS_P2;PMS_P1;PMS_P2;Temp;Humidity;BMP_temperature;BMP_pressure;BME280_temperature;BME280_humidity;BME280_pressure;Samples;Min_cycle;Max_cycle;Signal;HPM_P1;HPM_P2
2021/08/19 00:00:48;;;;;;;12.90;10.10;;;11.20;99.90;;;;;;4967637;28;20030;-78
2021/08/19 00:03:14;;;;;;;12.88;9.27;;;11.20;99.90;;;;;;4973284;28;20031;-78
2021/08/19 00:05:40;;;;;;;14.27;10.27;;;11.20;99.90;;;;;;4971905;28;20019;-78
2021/08/19 00:08:05;;;;;;;15.80;11.70;;;11.20;99.90;;;;;;4973158;28;20034;-78
2021/08/19 00:10:31;;;;;;;14.75;11.48;;;11.20;99.90;;;;;;4973066;28;20023;-78
2021/08/19 00:12:58;;;;;;;14.50;11.43;;;11.20;99.90;;;;;;4973135;28;20476;-78
2021/08/19 00:15:24;;;;;;;14.65;11.90;;;11.20;99.90;;;;;;4971684;28;20030;-78
2021/08/19 00:17:50;;;;;;;15.88;12.25;;;11.10;99.90;;;;;;4973070;28;20035;-78
2021/08/19 00:20:16;;;;;;;14.15;11.93;;;11.10;99.90;;;;;;4970098;28;20477;-77
2021/08/19 00:22:41;;;;;;;14.88;11.35;;;11.10;99.90;;;;;;4954650;28;20098;-78
2021/08/19 00:25:07;;;;;;;14.00;10.65;;;11.10;99.90;;;;;;4952421;28;20503;-78
2021/08/19 00:27:33;;;;;;;19.10;12.07;;;11.10;99.90;;;;;;4968238;28;20035;-78
2021/08/19 00:29:59;;;;;;;13.95;10.45;;;11.00;99.90;;;;;;4953655;28;20019;-78
2021/08/19 00:32:24;;;;;;;13.90;10.60;;;11.00;99.90;;;;;;4953450;28;20114;-78
2021/08/19 00:34:50;;;;;;;11.13;9.32;;;10.90;99.90;;;;;;4953493;28;20032;-78
2021/08/19 00:37:16;;;;;;;11.38;9.43;;;10.90;99.90;;;;;;4953600;28;20028;-78
2021/08/19 00:39:44;;;;;;;13.35;11.43;;;10.80;99.90;;;;;;4953743;28;20077;-77
2021/08/19 00:42:10;;;;;;;13.13;9.75;;;10.80;99.90;;;;;;4968287;28;20024;-78
2021/08/19 00:44:41;;;;;;;11.07;8.85;;;10.70;99.90;;;;;;4953323;28;20030;-78
2021/08/19 00:47:07;;;;;;;11.75;8.50;;;10.70;99.90;;;;;;4953353;28;20015;-77
2021/08/19 00:49:34;;;;;;;9.93;7.85;;;10.60;99.90;;;;;;4968041;28;20495;-78
2021/08/19 00:52:00;;;;;;;10.52;7.55;;;10.50;99.90;;;;;;4983543;28;20041;-78
2021/08/19 00:54:28;;;;;;;9.07;7.38;;;10.50;99.90;;;;;;4971124;28;20384;-78
2021/08/19 00:56:59;;;;;;;9.75;7.43;;;10.50;99.90;;;;;;4971095;28;20424;-78
2021/08/19 00:59:29;;;;;;;9.65;6.80;;;10.50;99.90;;;;;;4972242;28;20116;-78
2021/08/19 01:01:58;;;;;;;6.43;5.60;;;10.40;99.90;;;;;;4971110;28;20031;-78
2021/08/19 01:04:24;;;;;;;7.32;6.63;;;10.40;99.90;;;;;;4972343;28;20034;-78
2021/08/19 01:06:50;;;;;;;8.38;6.53;;;10.30;99.90;;;;;;4972404;28;20023;-78
2021/08/19 01:09:17;;;;;;;7.72;5.65;;;10.30;99.90;;;;;;4971015;28;20026;-78
2021/08/19 01:11:43;;;;;;;8.60;5.90;;;10.30;99.90;;;;;;4972200;28;20081;-78
2021/08/19 01:14:16;;;;;;;9.60;5.90;;;10.30;99.90;;;;;;4970913;28;20109;-78
2021/08/19 01:16:43;;;;;;;7.45;6.50;;;10.30;99.90;;;;;;4972097;28;20046;-78
2021/08/19 01:19:16;;;;;;;10.90;6.90;;;10.40;99.90;;;;;;4972181;28;20061;-77
2021/08/19 01:21:42;;;;;;;10.63;7.85;;;10.30;99.90;;;;;;4958588;28;20473;-78
2021/08/19 01:24:08;;;;;;;8.15;6.25;;;10.30;99.90;;;;;;4967892;28;20026;-80
2021/08/19 01:26:34;;;;;;;12.15;8.10;;;10.30;99.90;;;;;;4951451;28;20403;-80
2021/08/19 01:29:04;;;;;;;8.20;6.60;;;10.30;99.90;;;;;;4952737;28;20455;-77
2021/08/19 01:31:30;;;;;;;8.88;6.35;;;10.30;99.90;;;;;;4967444;28;20030;-77
2021/08/19 01:33:56;;;;;;;7.53;6.45;;;10.20;99.90;;;;;;4967481;28;20057;-77
2021/08/19 01:36:22;;;;;;;10.60;6.60;;;10.20;99.90;;;;;;4952568;28;20073;-77
2021/08/19 01:38:50;;;;;;;6.20;5.60;;;10.20;99.90;;;;;;4968234;28;20473;-77
2021/08/19 01:41:16;;;;;;;5.95;5.13;;;10.20;99.90;;;;;;4952546;28;20058;-77
2021/08/19 01:43:44;;;;;;;5.00;4.50;;;10.10;99.90;;;;;;4967251;28;20035;-77
2021/08/19 01:46:12;;;;;;;5.45;4.47;;;10.00;99.90;;;;;;4967319;28;20031;-77
2021/08/19 01:48:42;;;;;;;5.47;4.22;;;10.00;99.90;;;;;;4952397;28;20035;-77
2021/08/19 01:51:11;;;;;;;4.75;4.35;;;10.00;99.90;;;;;;4968116;28;20030;-77
2021/08/19 01:53:38;;;;;;;7.00;4.90;;;10.00;99.90;;;;;;4952637;28;20069;-77
2021/08/19 01:56:04;;;;;;;8.60;5.75;;;10.00;99.90;;;;;;4967138;28;20487;-77
2021/08/19 01:58:30;;;;;;;7.28;5.88;;;10.00;99.90;;;;;;4952220;28;20106;-77
2021/08/19 02:00:55;;;;;;;8.48;6.07;;;10.00;99.90;;;;;;4952353;28;20145;-77
2021/08/19 02:03:21;;;;;;;6.13;5.25;;;9.90;99.90;;;;;;4951996;28;20031;-78
2021/08/19 02:05:48;;;;;;;6.65;4.93;;;9.90;99.90;;;;;;4951282;28;20089;-78
2021/08/19 02:08:15;;;;;;;5.90;5.35;;;9.90;99.90;;;;;;4957515;28;20023;-77
2021/08/19 02:10:42;;;;;;;6.40;5.57;;;9.80;99.90;;;;;;4970158;28;20023;-78
2021/08/19 02:13:08;;;;;;;6.90;5.93;;;9.70;99.90;;;;;;4970109;28;20054;-78
2021/08/19 02:15:34;;;;;;;7.03;5.40;;;9.70;99.90;;;;;;4964280;28;20043;-78
2021/08/19 02:18:00;;;;;;;8.50;6.35;;;9.70;99.90;;;;;;4952062;28;20077;-78
2021/08/19 02:20:25;;;;;;;6.32;5.72;;;9.70;99.90;;;;;;4950778;28;20024;-77
2021/08/19 02:22:51;;;;;;;7.68;5.68;;;9.70;99.90;;;;;;4966753;28;20024;-78
2021/08/19 02:25:17;;;;;;;7.90;5.97;;;9.70;99.90;;;;;;4951958;28;20055;-77
2021/08/19 02:27:44;;;;;;;6.30;5.32;;;9.60;99.90;;;;;;4966733;28;20029;-77
2021/08/19 02:30:10;;;;;;;7.18;5.40;;;9.60;99.90;;;;;;4951022;28;20050;-77
2021/08/19 02:32:37;;;;;;;6.75;4.65;;;9.60;99.90;;;;;;4951774;28;20103;-77
2021/08/19 02:35:03;;;;;;;7.78;5.40;;;9.60;99.90;;;;;;4966648;28;20177;-77
2021/08/19 02:37:29;;;;;;;5.68;4.93;;;9.50;99.90;;;;;;4951681;28;20031;-77
2021/08/19 02:39:55;;;;;;;6.00;5.15;;;9.50;99.90;;;;;;4966837;28;20112;-78
2021/08/19 02:42:20;;;;;;;7.88;5.03;;;9.50;99.90;;;;;;4966457;28;20058;-77
2021/08/19 02:44:46;;;;;;;6.15;5.00;;;9.50;99.90;;;;;;4950440;28;20028;-77
2021/08/19 02:47:12;;;;;;;8.27;5.22;;;9.50;99.90;;;;;;4971028;28;20110;-77
2021/08/19 02:49:38;;;;;;;10.77;5.85;;;9.50;99.90;;;;;;4969670;28;20027;-77
2021/08/19 02:52:04;;;;;;;18.73;7.13;;;9.40;99.90;;;;;;4969619;28;20072;-77
2021/08/19 02:54:30;;;;;;;9.60;6.05;;;9.30;99.90;;;;;;4970930;28;20023;-77
2021/08/19 02:56:55;;;;;;;10.43;5.78;;;9.30;99.90;;;;;;4970857;28;20043;-77
2021/08/19 02:59:21;;;;;;;7.68;5.15;;;9.40;99.90;;;;;;4970941;28;20031;-77
2021/08/19 03:01:47;;;;;;;6.65;5.60;;;9.40;99.90;;;;;;4969565;28;20055;-78
2021/08/19 03:04:12;;;;;;;5.53;5.03;;;9.40;99.90;;;;;;4969552;28;20385;-77
2021/08/19 03:06:38;;;;;;;6.47;5.25;;;9.30;99.90;;;;;;4963661;28;20089;-77
2021/08/19 03:09:04;;;;;;;8.52;5.35;;;9.30;99.90;;;;;;4952521;28;20027;-77
2021/08/19 03:11:29;;;;;;;10.82;6.60;;;9.30;99.90;;;;;;4966101;28;20055;-77
2021/08/19 03:13:55;;;;;;;8.05;5.47;;;9.40;99.90;;;;;;4950195;28;20042;-77
2021/08/19 03:16:21;;;;;;;8.02;5.70;;;9.40;99.90;;;;;;4967782;28;20059;-77
2021/08/19 03:18:46;;;;;;;6.80;5.30;;;9.30;99.90;;;;;;4969425;28;20032;-77
2021/08/19 03:21:12;;;;;;;8.60;5.38;;;9.30;99.90;;;;;;4954688;28;20059;-77
2021/08/19 03:23:38;;;;;;;7.22;5.82;;;9.20;99.90;;;;;;4953270;28;20374;-77
2021/08/19 03:26:05;;;;;;;6.90;5.30;;;9.20;99.90;;;;;;4954616;28;20025;-77
2021/08/19 03:28:32;;;;;;;4.95;4.00;;;9.20;99.90;;;;;;4954444;28;20058;-77
2021/08/19 03:30:58;;;;;;;4.22;3.80;;;9.20;99.90;;;;;;4969420;28;20027;-77
2021/08/19 03:33:24;;;;;;;5.97;4.20;;;9.20;99.90;;;;;;4954347;28;20519;-77
2021/08/19 03:35:50;;;;;;;4.82;3.75;;;9.10;99.90;;;;;;4953002;28;20061;-78
2021/08/19 03:38:16;;;;;;;27.05;7.43;;;9.10;99.90;;;;;;4988503;28;20019;-77
2021/08/19 03:40:41;;;;;;;14.48;6.75;;;9.10;99.90;;;;;;4972386;28;20118;-77
2021/08/19 03:43:07;;;;;;;10.82;5.03;;;9.20;99.90;;;;;;4973533;28;20061;-77
2021/08/19 03:45:33;;;;;;;9.45;5.40;;;9.20;99.90;;;;;;4973490;28;20059;-77
2021/08/19 03:47:58;;;;;;;9.77;5.78;;;9.30;99.90;;;;;;4972333;28;20393;-77
2021/08/19 03:50:24;;;;;;;9.27;5.70;;;9.30;99.90;;;;;;4972140;28;20023;-78
2021/08/19 03:52:50;;;;;;;6.93;5.75;;;9.30;99.90;;;;;;4972120;28;20023;-78
2021/08/19 03:55:16;;;;;;;5.30;4.80;;;9.30;99.90;;;;;;5056892;28;20046;-77
2021/08/19 03:57:42;;;;;;;7.22;5.68;;;9.30;99.90;;;;;;4972148;28;20030;-77
2021/08/19 04:00:09;;;;;;;5.97;5.00;;;9.30;99.90;;;;;;4973375;28;20052;-77
2021/08/19 04:02:34;;;;;;;5.80;3.40;;;9.30;99.90;;;;;;4973139;28;20125;-77
2021/08/19 04:05:00;;;;;;;5.30;4.80;;;9.30;99.90;;;;;;5057002;28;20105;-77
2021/08/19 04:07:26;;;;;;;3.83;3.42;;;9.40;99.90;;;;;;4971207;28;20030;-76
2021/08/19 04:09:51;;;;;;;5.38;4.00;;;9.40;99.90;;;;;;4973243;28;20427;-77
2021/08/19 04:12:17;;;;;;;9.40;3.80;;;9.40;99.90;;;;;;4973166;28;20027;-77
2021/08/19 04:14:43;;;;;;;5.60;4.65;;;9.50;99.90;;;;;;4971082;28;20030;-77
2021/08/19 04:17:09;;;;;;;8.88;5.78;;;9.60;99.90;;;;;;4972279;28;20096;-77
2021/08/19 04:19:35;;;;;;;6.50;5.43;;;9.60;99.90;;;;;;5055178;28;20030;-77
2021/08/19 04:22:00;;;;;;;7.43;5.40;;;9.70;99.90;;;;;;4971845;28;20031;-77
2021/08/19 04:24:26;;;;;;;7.82;5.82;;;9.70;99.90;;;;;;5056205;28;20093;-78
2021/08/19 04:26:52;;;;;;;10.88;5.97;;;9.80;99.90;;;;;;4970024;28;20035;-77
2021/08/19 04:29:17;;;;;;;7.68;5.85;;;9.90;99.90;;;;;;4972483;28;20042;-77
2021/08/19 04:31:43;;;;;;;11.52;6.22;;;9.90;99.90;;;;;;4972888;28;20027;-77
2021/08/19 04:34:09;;;;;;;9.63;5.90;;;10.00;99.90;;;;;;4970371;28;20484;-77
2021/08/19 04:36:35;;;;;;;8.20;6.03;;;10.10;99.90;;;;;;4968173;28;20443;-77
2021/08/19 04:39:00;;;;;;;8.65;6.55;;;10.20;99.90;;;;;;4968313;28;20039;-77
2021/08/19 04:41:26;;;;;;;12.25;6.50;;;10.30;99.90;;;;;;4953433;28;20102;-77
2021/08/19 04:43:51;;;;;;;10.52;7.18;;;10.40;99.90;;;;;;4952805;28;20032;-78
2021/08/19 04:46:17;;;;;;;8.05;5.88;;;10.50;99.90;;;;;;4965324;28;20397;-77
2021/08/19 04:48:43;;;;;;;6.72;5.38;;;10.50;99.90;;;;;;4972506;28;20034;-77
2021/08/19 04:51:08;;;;;;;10.52;6.15;;;10.60;99.90;;;;;;4971361;28;20027;-77
2021/08/19 04:53:34;;;;;;;6.97;5.43;;;10.70;99.90;;;;;;4971142;28;20027;-77
2021/08/19 04:55:59;;;;;;;8.30;5.78;;;10.80;99.90;;;;;;4987379;28;20042;-77
2021/08/19 04:58:28;;;;;;;10.68;5.18;;;11.00;99.90;;;;;;4987289;28;20117;-77
2021/08/19 05:00:54;;;;;;;7.72;5.55;;;11.20;99.90;;;;;;4972426;28;20476;-77
2021/08/19 05:03:20;;;;;;;10.68;5.53;;;11.30;99.90;;;;;;4972371;28;20023;-77
2021/08/19 05:05:45;;;;;;;8.90;5.85;;;11.50;99.90;;;;;;4972895;28;20031;-77
2021/08/19 05:08:11;;;;;;;9.13;6.03;;;11.50;99.90;;;;;;4951750;28;20023;-77
2021/08/19 05:10:37;;;;;;;5.95;5.20;;;11.70;99.90;;;;;;4952957;29;20034;-77
2021/08/19 05:13:02;;;;;;;7.63;5.40;;;11.90;99.90;;;;;;4967758;28;20019;-77
2021/08/19 05:15:28;;;;;;;5.95;4.70;;;12.00;99.90;;;;;;4952063;28;20027;-77
2021/08/19 05:17:54;;;;;;;13.77;6.70;;;12.20;99.90;;;;;;4971739;28;20068;-77
2021/08/19 05:20:20;;;;;;;7.57;5.53;;;12.30;99.90;;;;;;4971816;28;20019;-77
2021/08/19 05:22:45;;;;;;;8.35;6.18;;;12.50;99.90;;;;;;4971535;28;20045;-77
2021/08/19 05:25:11;;;;;;;12.00;7.07;;;12.60;99.90;;;;;;4972152;28;20430;-77
2021/08/19 05:27:37;;;;;;;8.63;6.53;;;12.80;99.90;;;;;;4971953;28;20035;-77
2021/08/19 05:30:03;;;;;;;8.50;6.63;;;12.90;99.90;;;;;;4972098;28;20492;-77
2021/08/19 05:32:29;;;;;;;9.93;5.93;;;13.10;99.90;;;;;;4971857;28;20503;-77
2021/08/19 05:34:56;;;;;;;12.00;8.73;;;13.30;99.90;;;;;;4965708;28;20031;-77
2021/08/19 05:37:22;;;;;;;11.07;8.38;;;13.40;99.90;;;;;;4967388;28;20035;-77
2021/08/19 05:39:47;;;;;;;13.45;8.52;;;13.60;99.90;;;;;;4952280;28;20504;-77
2021/08/19 05:42:14;;;;;;;13.35;8.93;;;13.70;99.90;;;;;;4953404;28;20011;-77
2021/08/19 05:44:39;;;;;;;14.38;9.85;;;13.80;99.90;;;;;;4977291;28;20460;-77
2021/08/19 05:47:06;;;;;;;15.18;9.30;;;13.90;99.90;;;;;;4964477;28;20065;-76
2021/08/19 05:49:44;;;;;;;15.27;9.38;;;14.00;99.90;;;;;;4980431;28;20408;-79
2021/08/19 05:52:12;;;;;;;19.42;10.23;;;14.10;99.90;;;;;;4964264;28;20053;-79
2021/08/19 05:54:37;;;;;;;14.45;9.30;;;14.20;99.90;;;;;;4964425;28;20075;-77
2021/08/19 05:57:04;;;;;;;12.75;8.88;;;14.30;99.90;;;;;;4973933;28;20070;-78
2021/08/19 05:59:30;;;;;;;12.98;8.07;;;14.40;99.90;;;;;;4968183;28;20027;-77
2021/08/19 06:01:55;;;;;;;16.08;9.50;;;14.50;99.90;;;;;;4968637;28;20027;-78
2021/08/19 06:04:21;;;;;;;12.93;8.43;;;14.60;99.90;;;;;;4969455;28;20019;-78
2021/08/19 06:06:47;;;;;;;14.90;8.32;;;14.60;99.90;;;;;;4978199;28;20080;-78
2021/08/19 06:09:13;;;;;;;10.57;8.07;;;14.60;99.90;;;;;;4968757;28;20034;-78
2021/08/19 06:11:39;;;;;;;11.70;7.97;;;14.80;99.90;;;;;;4968873;28;20046;-78
2021/08/19 06:14:05;;;;;;;13.65;8.68;;;14.80;99.90;;;;;;4967576;28;20464;-78
2021/08/19 06:16:31;;;;;;;12.90;7.80;;;14.90;99.90;;;;;;4968539;28;20138;-78
2021/08/19 06:18:57;;;;;;;10.38;6.75;;;15.10;99.90;;;;;;4982565;28;20027;-78
2021/08/19 06:21:23;;;;;;;10.05;6.88;;;15.20;99.90;;;;;;4984464;28;20019;-78
2021/08/19 06:23:49;;;;;;;10.55;6.18;;;15.30;99.90;;;;;;4969927;28;20485;-78
2021/08/19 06:26:15;;;;;;;11.27;6.50;;;15.40;99.90;;;;;;4969043;28;20023;-78
2021/08/19 06:28:40;;;;;;;7.88;5.82;;;15.60;99.90;;;;;;4970249;28;20610;-78
2021/08/19 06:31:06;;;;;;;10.13;5.13;;;15.70;99.90;;;;;;4971168;28;20027;-79
2021/08/19 06:33:32;;;;;;;12.85;5.50;;;15.90;99.90;;;;;;4970933;28;20081;-78
2021/08/19 06:35:57;;;;;;;8.70;5.10;;;16.00;99.90;;;;;;4969832;28;20054;-78
2021/08/19 06:38:23;;;;;;;9.02;4.88;;;16.10;99.90;;;;;;4971185;28;20101;-78
2021/08/19 06:40:49;;;;;;;6.85;4.35;;;16.20;99.90;;;;;;4970861;28;20039;-78
2021/08/19 06:43:15;;;;;;;6.70;5.00;;;16.30;99.90;;;;;;4969627;28;20542;-78
2021/08/19 06:45:40;;;;;;;7.22;5.05;;;16.30;99.90;;;;;;4967927;28;20168;-78
2021/08/19 06:48:06;;;;;;;7.88;5.20;;;16.40;99.90;;;;;;4970325;28;20037;-78
2021/08/19 06:50:32;;;;;;;7.07;4.20;;;16.40;99.90;;;;;;4986424;28;20125;-78
2021/08/19 06:52:57;;;;;;;8.15;5.28;;;16.40;99.90;;;;;;4974349;28;20034;-78
2021/08/19 06:55:24;;;;;;;8.82;4.55;;;16.30;99.90;;;;;;4988876;28;20035;-78
2021/08/19 06:57:50;;;;;;;6.78;3.67;;;16.50;99.90;;;;;;4979418;28;20381;-78
2021/08/19 07:00:16;;;;;;;6.75;3.80;;;16.50;99.90;;;;;;4954637;28;20038;-78
2021/08/19 07:02:42;;;;;;;6.20;4.40;;;16.60;99.90;;;;;;4968782;28;20085;-78
2021/08/19 07:05:08;;;;;;;4.22;3.80;;;16.70;99.90;;;;;;4971492;28;20027;-78
2021/08/19 07:07:34;;;;;;;4.32;3.75;;;16.80;99.90;;;;;;4970140;28;20027;-78
2021/08/19 07:10:01;;;;;;;6.97;4.22;;;17.10;99.90;;;;;;4987975;28;20379;-78
2021/08/19 07:12:27;;;;;;;9.00;4.85;;;17.30;99.90;;;;;;4971766;28;20023;-78
2021/08/19 07:14:53;;;;;;;7.15;4.18;;;17.40;99.90;;;;;;4987171;28;20106;-78
2021/08/19 07:17:18;;;;;;;7.97;4.72;;;17.50;99.90;;;;;;4971530;28;20039;-81
2021/08/19 07:19:44;;;;;;;6.95;5.13;;;17.50;99.90;;;;;;4972957;28;20019;-78
2021/08/19 07:22:10;;;;;;;6.63;4.35;;;17.60;99.90;;;;;;4972141;28;20072;-78
2021/08/19 07:24:36;;;;;;;7.93;4.35;;;17.80;99.90;;;;;;4973340;28;20047;-78
2021/08/19 07:27:02;;;;;;;6.70;4.30;;;18.10;99.90;;;;;;4984823;28;20023;-78
2021/08/19 07:29:27;;;;;;;6.68;4.60;;;18.10;99.90;;;;;;4984453;28;20035;-78
2021/08/19 07:31:53;;;;;;;5.60;3.78;;;18.20;99.90;;;;;;4967890;28;20018;-78
2021/08/19 07:34:19;;;;;;;5.53;3.70;;;18.10;99.90;;;;;;4986980;28;20023;-78
2021/08/19 07:36:44;;;;;;;8.73;4.72;;;18.20;99.90;;;;;;4988397;28;20034;-78
2021/08/19 07:39:10;;;;;;;5.82;4.55;;;18.60;99.90;;;;;;4972252;28;20037;-78
2021/08/19 07:41:36;;;;;;;6.10;4.35;;;18.80;99.90;;;;;;4971852;28;20038;-78
2021/08/19 07:44:03;;;;;;;7.20;3.88;;;19.00;99.90;;;;;;4987462;28;20083;-78
2021/08/19 07:46:29;;;;;;;3.92;3.55;;;19.00;99.90;;;;;;4972448;28;20019;-78
2021/08/19 07:48:56;;;;;;;6.43;4.15;;;19.10;99.90;;;;;;4972205;28;20034;-78
2021/08/19 07:51:23;;;;;;;8.30;4.20;;;19.20;99.90;;;;;;4972401;28;20031;-78
2021/08/19 07:53:49;;;;;;;4.22;3.80;;;19.50;99.90;;;;;;4972072;28;20027;-78
2021/08/19 07:56:14;;;;;;;4.10;3.53;;;19.60;99.90;;;;;;4962332;28;20142;-78
2021/08/19 07:58:40;;;;;;;4.93;3.70;;;19.60;99.90;;;;;;4968761;28;20051;-78
2021/08/19 08:01:06;;;;;;;4.90;3.30;;;19.70;99.90;;;;;;4954040;28;20050;-78
2021/08/19 08:03:32;;;;;;;4.53;3.63;;;19.90;99.90;;;;;;4953832;28;20551;-78
2021/08/19 08:56:28;;;;;;;6.97;5.25;;;20.50;92.60;;;;;;5066548;28;20883;-74
2021/08/19 08:58:55;;;;;;;6.65;4.30;;;20.90;91.70;;;;;;5066607;28;20032;-75
2021/08/19 09:01:21;;;;;;;6.13;3.85;;;20.80;90.50;;;;;;5066732;27;20016;-75
2021/08/19 09:03:47;;;;;;;5.30;3.50;;;20.80;92.60;;;;;;5048591;28;20524;-75
2021/08/19 09:06:17;;;;;;;5.65;3.95;;;20.90;91.10;;;;;;5064938;28;20047;-75
2021/08/19 09:08:51;;;;;;;8.18;3.88;;;21.00;91.80;;;;;;5066499;28;20013;-74
2021/08/19 09:11:17;;;;;;;5.70;4.15;;;21.00;91.80;;;;;;5108757;27;20015;-75
2021/08/19 09:13:42;;;;;;;7.78;5.50;;;21.00;97.40;;;;;;5116051;27;20081;-76
2021/08/19 09:16:19;;;;;;;6.40;4.45;;;21.20;94.10;;;;;;5113067;27;20356;-75
2021/08/19 09:18:45;;;;;;;11.98;6.00;;;21.40;94.50;;;;;;5115734;27;20529;-75
2021/08/19 09:21:21;;;;;;;8.05;4.65;;;21.60;92.60;;;;;;5110890;27;20504;-75
2021/08/19 09:23:47;;;;;;;5.65;4.10;;;21.50;91.10;;;;;;5072298;27;20043;-75
2021/08/19 09:26:26;;;;;;;4.05;3.65;;;21.40;91.80;;;;;;5065924;28;20478;-74
2021/08/19 09:29:17;;;;;;;6.13;4.22;;;21.50;92.50;;;;;;5064994;27;20025;-75
2021/08/19 09:31:43;;;;;;;4.45;3.85;;;21.70;92.40;;;;;;5066032;28;20023;-75
2021/08/19 09:34:09;;;;;;;8.70;4.30;;;21.90;89.70;;;;;;5064773;28;20021;-76
2021/08/19 09:36:36;;;;;;;7.93;4.47;;;22.00;89.80;;;;;;5064697;28;20037;-75
2021/08/19 09:39:05;;;;;;;3.38;3.13;;;22.10;82.90;;;;;;5064702;28;20032;-75
2021/08/19 09:41:30;;;;;;;5.05;3.22;;;22.20;79.80;;;;;;5065728;28;20070;-75
2021/08/19 09:43:58;;;;;;;5.05;3.60;;;22.10;79.80;;;;;;5064582;28;20017;-75
2021/08/19 09:46:36;;;;;;;4.45;3.63;;;22.10;81.30;;;;;;5064390;27;20024;-74
2021/08/19 09:49:27;;;;;;;5.35;3.20;;;22.00;84.70;;;;;;5065838;28;20017;-75
2021/08/19 09:52:00;;;;;;;3.35;2.95;;;21.80;84.30;;;;;;5068259;28;20036;-74
2021/08/19 09:54:31;;;;;;;3.75;3.30;;;21.60;85.10;;;;;;5064188;28;20044;-76
2021/08/19 09:56:57;;;;;;;4.55;2.90;;;21.60;88.70;;;;;;5055051;28;20021;-75
2021/08/19 09:59:26;;;;;;;3.30;3.00;;;21.60;83.80;;;;;;5050871;28;20017;-75
2021/08/19 10:01:53;;;;;;;4.65;2.92;;;21.70;84.40;;;;;;5050691;28;20025;-74
2021/08/19 10:04:20;;;;;;;5.05;3.15;;;21.80;84.00;;;;;;5050420;28;20021;-75
2021/08/19 10:06:47;;;;;;;6.38;3.63;;;21.70;82.30;;;;;;5052257;28;20028;-75
2021/08/19 10:09:13;;;;;;;6.18;4.05;;;21.80;87.60;;;;;;5050420;28;20493;-75
2021/08/19 10:11:43;;;;;;;4.35;3.10;;;21.70;85.50;;;;;;5056238;27;20029;-75
2021/08/19 10:14:13;;;;;;;6.95;4.32;;;21.70;86.40;;;;;;5056804;27;20041;-75
2021/08/19 10:16:40;;;;;;;4.22;2.70;;;21.90;87.60;;;;;;5050577;28;20021;-74
2021/08/19 10:19:10;;;;;;;4.90;3.05;;;22.10;86.40;;;;;;5051978;28;20385;-75
2021/08/19 10:21:40;;;;;;;5.18;3.55;;;22.10;83.40;;;;;;5094046;27;20071;-75
2021/08/19 10:24:08;;;;;;;5.03;3.53;;;22.10;81.40;;;;;;5101148;27;20021;-75
2021/08/19 10:26:34;;;;;;;8.93;5.38;;;22.00;84.30;;;;;;5098010;27;20022;-75
2021/08/19 10:29:00;;;;;;;11.57;7.93;;;21.80;83.00;;;;;;5106720;27;20010;-75
2021/08/19 10:31:44;;;;;;;17.50;8.55;;;22.00;84.60;;;;;;5100828;27;20335;-75
2021/08/19 10:34:12;;;;;;;6.90;4.72;;;21.90;80.30;;;;;;5100926;27;20041;-75
2021/08/19 10:36:48;;;;;;;8.05;3.85;;;21.80;82.30;;;;;;5094441;27;20021;-75
2021/08/19 10:39:20;;;;;;;8.20;4.10;;;21.80;80.90;;;;;;5094045;27;20032;-75
2021/08/19 10:41:50;;;;;;;7.35;3.30;;;21.90;83.10;;;;;;5099096;27;20529;-75
2021/08/19 10:44:17;;;;;;;3.90;2.70;;;22.30;82.70;;;;;;5096034;27;20049;-75
2021/08/19 10:46:46;;;;;;;3.55;3.15;;;22.30;79.00;;;;;;5105544;27;20015;-75
2021/08/19 10:49:33;;;;;;;4.93;2.70;;;22.40;78.30;;;;;;5106357;27;20035;-76
2021/08/19 10:52:07;;;;;;;9.88;4.45;;;22.50;78.90;;;;;;5106530;27;20076;-75
2021/08/19 10:54:39;;;;;;;6.85;5.00;;;22.50;78.30;;;;;;5105855;27;20037;-75
2021/08/19 10:57:24;;;;;;;10.07;5.18;;;22.60;75.90;;;;;;5098540;27;20028;-75
2021/08/19 11:00:10;;;;;;;8.82;5.03;;;22.60;73.40;;;;;;5102006;27;20036;-75
2021/08/19 11:02:43;;;;;;;3.22;2.80;;;22.50;74.10;;;;;;5031275;28;20029;-75
2021/08/19 11:05:33;;;;;;;5.60;3.85;;;22.20;70.60;;;;;;5031253;28;20112;-75
2021/08/19 11:08:03;;;;;;;5.78;3.00;;;21.90;71.00;;;;;;5090610;27;20041;-75
2021/08/19 11:10:36;;;;;;;7.35;3.58;;;21.70;76.20;;;;;;5110894;27;20453;-75
2021/08/19 11:13:13;;;;;;;4.43;3.00;;;21.60;78.00;;;;;;5156129;27;20023;-75
2021/08/19 11:15:49;;;;;;;6.60;3.17;;;21.40;80.60;;;;;;5154336;27;20054;-75
2021/08/19 11:18:33;;;;;;;3.90;2.83;;;21.20;83.40;;;;;;5154643;27;20030;-75
2021/08/19 11:21:03;;;;;;;3.05;2.75;;;21.00;86.60;;;;;;5154304;27;20518;-75
2021/08/19 11:23:37;;;;;;;4.15;3.00;;;20.80;85.50;;;;;;5139199;27;20125;-75
2021/08/19 11:26:08;;;;;;;5.18;2.83;;;20.60;87.70;;;;;;5154212;27;20383;-75
2021/08/19 11:28:39;;;;;;;4.80;3.38;;;20.60;91.20;;;;;;5155778;27;20027;-75
2021/08/19 11:31:21;;;;;;;3.72;3.03;;;20.50;92.60;;;;;;5154199;27;20105;-75
2021/08/19 11:33:56;;;;;;;4.03;2.73;;;20.40;93.90;;;;;;5155692;27;20054;-75
2021/08/19 11:36:23;;;;;;;3.65;3.33;;;20.30;96.80;;;;;;5154277;27;20019;-75
2021/08/19 11:38:56;;;;;;;6.10;3.60;;;20.20;96.30;;;;;;5154288;27;20031;-75
2021/08/19 11:41:22;;;;;;;5.15;3.25;;;20.10;98.60;;;;;;5155473;27;20046;-74
2021/08/19 11:43:48;;;;;;;3.58;2.60;;;20.10;97.70;;;;;;5154203;27;20387;-75
2021/08/19 11:46:24;;;;;;;4.93;3.10;;;20.00;99.10;;;;;;5154030;27;20056;-74
2021/08/19 11:48:55;;;;;;;3.17;2.65;;;20.00;99.60;;;;;;5155723;27;20014;-75
2021/08/19 11:51:21;;;;;;;2.90;2.67;;;19.90;99.70;;;;;;5155358;27;20038;-75
2021/08/19 11:54:06;;;;;;;3.80;3.38;;;19.90;99.90;;;;;;5155177;27;20049;-75
2021/08/19 11:56:35;;;;;;;3.55;2.78;;;19.80;99.90;;;;;;5153722;27;20441;-75
2021/08/19 11:59:08;;;;;;;3.30;3.00;;;19.70;99.90;;;;;;5153813;27;20021;-75
2021/08/19 12:01:35;;;;;;;3.55;3.20;;;19.70;99.90;;;;;;5153653;27;20027;-75
2021/08/19 12:04:01;;;;;;;6.80;3.30;;;19.60;99.90;;;;;;5153435;27;20022;-75
2021/08/19 12:06:28;;;;;;;5.95;3.47;;;19.60;99.90;;;;;;5124514;27;20029;-75
2021/08/19 12:09:06;;;;;;;5.55;3.50;;;19.60;99.90;;;;;;5088010;27;20125;-75
2021/08/19 12:11:37;;;;;;;5.45;3.47;;;19.70;99.90;;;;;;5110347;27;20014;-74
2021/08/19 12:14:03;;;;;;;3.67;3.25;;;19.70;99.90;;;;;;5153476;27;20022;-75
2021/08/19 12:16:30;;;;;;;3.42;2.95;;;19.80;99.90;;;;;;5153548;27;20019;-75
2021/08/19 12:19:13;;;;;;;4.35;2.63;;;20.00;99.90;;;;;;5154698;27;20019;-75
2021/08/19 12:21:53;;;;;;;4.22;3.13;;;20.10;99.90;;;;;;5154744;27;20570;-75
2021/08/19 12:24:29;;;;;;;3.75;2.83;;;20.20;99.90;;;;;;5153473;27;20022;-75
2021/08/19 12:27:00;;;;;;;4.93;3.10;;;20.30;99.90;;;;;;5153395;27;20023;-75
2021/08/19 12:29:27;;;;;;;7.32;2.80;;;20.40;99.90;;;;;;5154731;27;20034;-74
2021/08/19 12:31:52;;;;;;;4.00;3.00;;;20.30;99.90;;;;;;5153367;27;20030;-75
2021/08/19 12:34:18;;;;;;;5.72;3.05;;;20.30;99.90;;;;;;5154621;27;20042;-76
2021/08/19 12:36:45;;;;;;;4.95;3.85;;;20.20;99.90;;;;;;5154601;27;20467;-74
2021/08/19 12:39:25;;;;;;;5.85;3.10;;;20.10;99.80;;;;;;5153150;27;20011;-75
2021/08/19 12:42:09;;;;;;;4.93;3.80;;;20.00;98.30;;;;;;5153265;27;20382;-74
2021/08/19 12:44:36;;;;;;;4.85;4.10;;;19.80;95.30;;;;;;5154610;27;20050;-75
2021/08/19 12:47:02;;;;;;;5.63;3.22;;;19.80;96.20;;;;;;5154535;27;20019;-75
2021/08/19 12:49:33;;;;;;;4.95;3.33;;;19.80;99.70;;;;;;5153117;27;20054;-75
2021/08/19 12:52:17;;;;;;;3.25;2.97;;;19.70;99.90;;;;;;5153002;27;20029;-75
2021/08/19 12:54:59;;;;;;;5.68;3.03;;;19.80;99.70;;;;;;5152767;27;20509;-75
2021/08/19 12:57:36;;;;;;;4.68;3.10;;;19.80;96.60;;;;;;5152830;27;20474;-74
2021/08/19 13:00:12;;;;;;;3.33;2.90;;;20.00;96.70;;;;;;5153016;27;20035;-75
2021/08/19 13:02:38;;;;;;;3.30;2.78;;;20.20;94.30;;;;;;5153859;27;20025;-75
2021/08/19 13:05:04;;;;;;;2.83;2.60;;;20.30;92.90;;;;;;5152115;27;20106;-74
2021/08/19 13:07:30;;;;;;;2.60;2.40;;;20.40;89.10;;;;;;5153614;27;20479;-75
2021/08/19 13:09:56;;;;;;;4.95;3.40;;;20.60;90.30;;;;;;5153454;27;20041;-75
2021/08/19 13:12:22;;;;;;;4.60;2.70;;;20.70;89.20;;;;;;5152284;27;20029;-75
2021/08/19 13:14:48;;;;;;;5.35;2.83;;;20.80;86.30;;;;;;5153262;27;20432;-75
2021/08/19 13:17:14;;;;;;;3.60;2.85;;;20.80;85.60;;;;;;5152232;27;20040;-75
2021/08/19 13:19:40;;;;;;;3.60;3.00;;;21.00;85.20;;;;;;5153786;27;20034;-75
2021/08/19 13:22:06;;;;;;;3.40;2.60;;;21.00;85.20;;;;;;5152716;27;20487;-75
2021/08/19 13:24:32;;;;;;;3.33;2.40;;;21.00;86.70;;;;;;5153992;27;20023;-75
2021/08/19 13:26:58;;;;;;;2.55;2.17;;;21.10;84.40;;;;;;5152699;27;20034;-75
2021/08/19 13:29:23;;;;;;;7.95;3.25;;;21.10;81.10;;;;;;5152810;27;20395;-76
2021/08/19 13:31:49;;;;;;;3.58;3.25;;;21.00;79.40;;;;;;5154790;27;20027;-75
2021/08/19 13:34:15;;;;;;;3.90;3.28;;;21.00;80.50;;;;;;5157879;27;20037;-75
2021/08/19 13:36:40;;;;;;;3.22;2.92;;;21.00;80.20;;;;;;5158092;27;20106;-75
2021/08/19 13:39:06;;;;;;;7.28;3.38;;;21.10;82.90;;;;;;5156577;27;20022;-76